KALM/ALM METAR and TAF weather

Enter ICAO airport designator
Station Type Date Time Source
KALM METAR 2022/05/23 13:55 UTC NOAA

KALM 231355Z AUTO 00000KT 10SM CLR 16/M01 A3004 RMK AO2


Station Type Date Time Source
KALM Decoded METAR 2022/05/23 13:55 UTC NOAA

Alamogordo-White, NM, United States (KALM) 32-50N 105-59W
May 23, 2022 - 09:55 AM EDT / 2022.05.23 1355 UTC
Wind: Calm:0
Visibility: 10 mile(s):0
Sky conditions: clear
Temperature: 60 F (16 C)
Dew Point: 30 F (-1 C)
Relative Humidity: 31%
Pressure (altimeter): 30.04 in. Hg (1017 hPa)
ob: KALM 231355Z AUTO 00000KT 10SM CLR 16/M01 A3004 RMK AO2
cycle: 14

Station Type Date Time Source
KALM TAF UTC NOAA

Error!

Example: see airport list